Time;durP1;ratioP1;P1;durP2;ratioP2;P2;SDS_P1;SDS_P2;PMS_P1;PMS_P2;Temp;Humidity;BMP_temperature;BMP_pressure;BME280_temperature;BME280_humidity;BME280_pressure;Samples;Min_cycle;Max_cycle;Signal;HPM_P1;HPM_P2
2023/02/11 00:01:56;;;;;;;50.80;30.33;;;;;;;2.23;60.45;100771.78;5092479;28;20095;-48
2023/02/11 00:04:37;;;;;;;49.05;29.67;;;;;;;1.98;60.40;100766.34;5092506;28;20026;-48
2023/02/11 00:07:10;;;;;;;62.78;41.10;;;;;;;1.76;61.76;100773.75;5092643;28;20359;-46
2023/02/11 00:09:37;;;;;;;59.55;40.85;;;;;;;1.64;62.98;100770.16;5092240;28;20016;-46
2023/02/11 00:12:23;;;;;;;63.35;45.00;;;;;;;1.67;63.60;100771.72;5090986;28;20050;-46
2023/02/11 00:14:50;;;;;;;;;;;;;;;1.52;63.15;100763.94;5091367;28;20028;-46
2023/02/11 00:17:33;;;;;;;;;;;;;;;1.62;63.37;100766.00;5091346;28;19912;-46
2023/02/11 00:20:14;;;;;;;57.42;35.85;;;;;;;1.66;63.16;100763.13;5092210;28;19912;-47
2023/02/11 00:22:46;;;;;;;63.25;42.65;;;;;;;1.50;63.17;100763.19;5090850;28;20024;-46
2023/02/11 00:25:12;;;;;;;57.50;35.80;;;;;;;1.43;63.31;100766.22;5092148;28;20016;-46
2023/02/11 00:27:44;;;;;;;59.67;39.10;;;;;;;1.45;64.08;100767.81;5092326;28;20481;-46
2023/02/11 00:30:27;;;;;;;62.72;43.13;;;;;;;1.50;64.25;100765.78;5091910;28;20024;-46
2023/02/11 00:32:55;;;;;;;65.13;46.03;;;;;;;1.37;65.16;100762.28;5092047;28;20028;-46
2023/02/11 00:35:26;;;;;;;63.13;44.25;;;;;;;1.32;65.41;100769.47;5090014;28;20040;-47
2023/02/11 00:38:15;;;;;;;64.20;43.65;;;;;;;1.21;65.24;100770.09;5091954;28;20024;-46
2023/02/11 00:41:01;;;;;;;59.25;44.30;;;;;;;1.27;65.73;100761.13;5090559;28;20028;-46
2023/02/11 00:43:37;;;;;;;;;;;;;;;1.45;64.43;100760.06;5090996;28;20021;-46
2023/02/11 00:46:05;;;;;;;51.70;30.50;;;;;;;1.39;63.20;100758.66;5091880;28;19912;-46
2023/02/11 00:48:34;;;;;;;58.40;38.15;;;;;;;1.22;62.84;100757.97;5090529;28;20032;-47
2023/02/11 00:51:08;;;;;;;59.97;36.58;;;;;;;1.13;64.05;100754.19;5090314;28;20062;-47
2023/02/11 00:53:46;;;;;;;51.97;35.00;;;;;;;1.09;63.61;100756.09;5091996;28;20028;-47
2023/02/11 00:56:14;;;;;;;61.15;41.38;;;;;;;1.10;64.30;100755.16;5090420;28;20081;-46
2023/02/11 00:58:41;;;;;;;60.28;41.17;;;;;;;1.15;64.44;100757.50;5073698;28;20036;-46
2023/02/11 01:01:08;;;;;;;57.63;35.80;;;;;;;1.19;65.28;100753.81;5091749;28;20032;-46
2023/02/11 01:03:35;;;;;;;55.53;34.67;;;;;;;1.27;64.48;100737.84;5090394;28;20574;-46
2023/02/11 01:06:02;;;;;;;60.40;42.90;;;;;;;1.26;64.36;100737.00;5094214;28;20513;-45
2023/02/11 01:08:29;;;;;;;54.78;34.50;;;;;;;1.19;64.96;100727.97;5095856;28;20126;-46
2023/02/11 01:11:00;;;;;;;58.20;37.95;;;;;;;1.25;64.30;100727.59;5094506;28;20051;-46
2023/02/11 01:13:29;;;;;;;61.92;43.90;;;;;;;1.19;64.70;100733.13;5096022;28;20032;-46
2023/02/11 01:15:56;;;;;;;57.22;35.75;;;;;;;1.26;64.59;100733.59;5094385;28;20485;-46
2023/02/11 01:18:24;;;;;;;60.88;42.05;;;;;;;1.38;64.25;100733.69;5095581;28;20137;-46
2023/02/11 01:20:52;;;;;;;58.22;42.85;;;;;;;1.39;64.06;100734.56;5094196;28;20447;-46
2023/02/11 01:23:20;;;;;;;63.58;43.10;;;;;;;1.28;64.72;100739.50;5094174;28;20028;-46
2023/02/11 01:25:48;;;;;;;61.78;34.35;;;;;;;1.13;64.97;100749.00;5095452;28;20042;-46
2023/02/11 01:28:22;;;;;;;64.82;42.75;;;;;;;1.14;65.00;100738.56;5094119;28;20028;-46
2023/02/11 01:30:49;;;;;;;65.45;44.47;;;;;;;1.02;64.85;100739.25;5095309;28;20363;-46
2023/02/11 01:33:17;;;;;;;59.45;37.13;;;;;;;0.94;65.56;100734.53;5095347;28;20051;-46
2023/02/11 01:35:46;;;;;;;65.40;41.65;;;;;;;1.05;65.13;100739.09;5090930;28;20047;-47
2023/02/11 01:38:39;;;;;;;244.60;197.23;;;;;;;1.17;65.51;100727.22;5093853;28;20043;-46
2023/02/11 01:41:18;;;;;;;77.05;55.60;;;;;;;1.14;65.18;100725.63;5094083;28;20567;-47
2023/02/11 01:44:53;;;;;;;63.63;40.03;;;;;;;0.93;65.08;100732.06;5095148;28;20020;-48
2023/02/11 01:47:21;;;;;;;61.00;37.25;;;;;;;0.90;65.58;100722.69;5092907;28;20043;-47
2023/02/11 01:50:02;;;;;;;57.78;36.35;;;;;;;1.00;65.00;100728.19;5093580;28;20024;-47
2023/02/11 01:52:52;;;;;;;59.38;46.95;;;;;;;1.08;64.99;100714.81;5094871;28;20434;-47
2023/02/11 01:58:27;;;;;;;64.55;43.22;;;;;;;1.00;66.31;100702.31;5095146;28;20042;-46
2023/02/11 02:01:02;;;;;;;64.50;42.75;;;;;;;0.84;66.99;100712.72;5093407;28;20039;-46
2023/02/11 02:03:51;;;;;;;64.22;44.22;;;;;;;0.57;67.10;100704.78;5093429;28;20120;-46
2023/02/11 02:07:20;;;;;;;62.70;39.08;;;;;;;0.44;67.87;100702.03;5093368;28;20028;-48
2023/02/11 02:10:20;;;;;;;78.35;51.08;;;;;;;0.47;67.92;100704.47;5094435;28;20034;-46
2023/02/11 02:13:01;;;;;;;64.28;45.45;;;;;;;0.48;68.98;100698.38;5093167;28;20028;-48
2023/02/11 02:16:10;;;;;;;64.60;46.75;;;;;;;0.52;67.96;100697.28;5092565;28;20028;-48
2023/02/11 02:19:14;;;;;;;63.83;40.58;;;;;;;0.45;68.20;100692.56;5094529;28;20031;-47
2023/02/11 02:22:09;;;;;;;;;;;;;;;;;;;;;
2023/02/11 02:25:19;;;;;;;66.53;46.97;;;;;;;0.22;68.38;100688.66;5094344;28;20520;-46
2023/02/11 02:28:21;;;;;;;67.00;44.03;;;;;;;0.13;68.32;100677.91;5093016;28;20046;-48
2023/02/11 02:31:49;;;;;;;64.53;43.58;;;;;;;0.19;69.05;100676.75;5093901;28;20032;-47
2023/02/11 02:34:46;;;;;;;;;;;;;;;0.12;68.90;100675.41;5093314;28;20119;-45
2023/02/11 02:37:50;;;;;;;68.70;47.05;;;;;;;0.11;68.17;100678.94;5089238;28;19987;-45
2023/02/11 02:40:51;;;;;;;64.53;44.83;;;;;;;0.16;68.54;100679.50;5094022;28;20498;-45
2023/02/11 02:43:34;;;;;;;68.00;46.83;;;;;;;0.18;68.22;100677.66;5092704;28;20042;-45
2023/02/11 02:46:46;;;;;;;62.90;45.05;;;;;;;0.09;68.65;100671.25;5092571;28;20036;-45
2023/02/11 02:49:20;;;;;;;68.60;47.83;;;;;;;0.10;69.27;100675.53;5093920;28;20095;-43
2023/02/11 02:52:23;;;;;;;62.13;37.70;;;;;;;0.34;68.51;100672.47;5093780;28;20111;-46
2023/02/11 02:59:17;;;;;;;69.05;46.88;;;;;;;0.56;67.57;100672.97;5093853;28;20043;-45
2023/02/11 03:02:13;;;;;;;70.78;48.85;;;;;;;0.28;67.32;100671.09;5092360;28;20067;-44
2023/02/11 03:05:06;;;;;;;57.97;41.15;;;;;;;0.06;68.58;100662.84;5093599;28;20028;-44
2023/02/11 03:07:48;;;;;;;66.57;39.97;;;;;;;-0.01;68.13;100665.75;5093631;28;20028;-44
2023/02/11 03:10:46;;;;;;;64.03;44.67;;;;;;;0.15;68.75;100665.75;5092101;28;20508;-44
2023/02/11 03:13:16;;;;;;;64.72;46.08;;;;;;;0.14;68.17;100655.50;5092679;28;20040;-44
2023/02/11 03:15:47;;;;;;;66.05;48.35;;;;;;;0.01;68.38;100665.69;5093321;28;20473;-44
2023/02/11 03:18:18;;;;;;;64.88;46.97;;;;;;;-0.06;68.58;100662.63;5092134;28;20031;-44
2023/02/11 03:20:50;;;;;;;66.03;47.40;;;;;;;-0.21;69.44;100660.84;5091904;28;20035;-44
2023/02/11 03:23:36;;;;;;;67.57;47.63;;;;;;;-0.35;68.85;100658.19;5093626;28;20027;-44
2023/02/11 03:26:29;;;;;;;65.82;47.10;;;;;;;-0.50;69.59;100659.84;5093138;28;20465;-44
2023/02/11 03:29:02;;;;;;;67.50;51.05;;;;;;;-0.66;70.17;100660.63;5092816;28;20043;-45
2023/02/11 03:31:37;;;;;;;70.18;46.05;;;;;;;-0.68;70.25;100652.13;5092944;28;20094;-44
2023/02/11 03:34:17;;;;;;;61.08;38.65;;;;;;;-0.53;71.29;100653.06;5092076;28;20462;-44
2023/02/11 03:37:08;;;;;;;63.35;45.72;;;;;;;-0.29;71.39;100648.34;5092701;28;20048;-44
2023/02/11 03:39:45;;;;;;;59.63;39.33;;;;;;;-0.10;70.44;100643.06;5092854;28;20044;-43
2023/02/11 03:42:14;;;;;;;70.82;42.88;;;;;;;0.24;70.37;100636.00;5092897;28;20039;-44
2023/02/11 03:44:57;;;;;;;60.65;44.72;;;;;;;0.32;68.47;100628.69;5091452;28;20089;-44
2023/02/11 03:47:29;;;;;;;62.13;43.25;;;;;;;0.17;68.16;100635.53;5093111;28;20047;-44
2023/02/11 03:49:59;;;;;;;65.78;48.95;;;;;;;-0.09;68.43;100629.22;5108452;28;20103;-44
2023/02/11 03:52:26;;;;;;;68.60;46.03;;;;;;;-0.27;68.80;100619.91;5092716;28;20030;-44
2023/02/11 03:55:05;;;;;;;70.05;49.45;;;;;;;-0.28;69.91;100624.22;5092649;28;20052;-44
2023/02/11 03:57:49;;;;;;;69.65;47.90;;;;;;;-0.29;70.43;100637.22;5092659;28;20079;-45
2023/02/11 04:00:51;;;;;;;70.03;49.35;;;;;;;-0.29;70.27;100634.63;5092754;28;20473;-44
2023/02/11 04:03:35;;;;;;;70.82;47.42;;;;;;;-0.38;70.35;100637.69;5091249;28;20084;-46
2023/02/11 04:06:14;;;;;;;74.63;47.50;;;;;;;-0.38;70.80;100642.84;5092449;28;20016;-45
2023/02/11 04:08:57;;;;;;;72.70;47.67;;;;;;;-0.35;70.82;100643.53;5092399;28;20063;-45
2023/02/11 04:11:40;;;;;;;66.28;49.25;;;;;;;-0.44;69.93;100644.03;5092190;28;20509;-45
2023/02/11 04:14:23;;;;;;;70.47;46.33;;;;;;;-0.65;70.29;100640.81;5092356;28;20020;-44
2023/02/11 04:17:07;;;;;;;70.72;47.97;;;;;;;-0.58;71.33;100636.16;5090996;28;20024;-46
2023/02/11 04:19:46;;;;;;;61.50;42.85;;;;;;;-0.42;70.61;100640.44;5092286;28;20076;-46
2023/02/11 04:22:22;;;;;;;66.38;46.50;;;;;;;-0.52;70.23;100641.84;5090828;28;20074;-46
2023/02/11 04:25:08;;;;;;;68.57;48.13;;;;;;;-0.48;71.11;100637.38;5092114;28;20022;-45
2023/02/11 04:27:54;;;;;;;71.78;45.28;;;;;;;-0.39;71.31;100636.03;5090810;28;20577;-45
2023/02/11 04:30:26;;;;;;;70.28;45.97;;;;;;;-0.33;70.86;100636.53;5092229;28;20405;-44
2023/02/11 04:33:08;;;;;;;73.38;49.15;;;;;;;-0.18;70.53;100632.31;5090824;28;20031;-45
2023/02/11 04:35:47;;;;;;;65.50;44.60;;;;;;;-0.22;69.74;100644.53;5090699;28;20457;-46
2023/02/11 04:38:18;;;;;;;69.10;42.33;;;;;;;-0.41;69.26;100643.84;5091851;28;20035;-44
2023/02/11 04:41:00;;;;;;;63.53;40.90;;;;;;;-0.59;70.00;100649.97;5090119;28;20379;-45
2023/02/11 04:43:41;;;;;;;65.00;44.08;;;;;;;-0.65;69.72;100648.56;5091896;28;20035;-45
2023/02/11 04:46:24;;;;;;;66.25;44.60;;;;;;;-0.73;69.86;100651.53;5091929;28;20099;-45
2023/02/11 04:48:52;;;;;;;72.05;41.65;;;;;;;-0.85;70.47;100654.72;5091759;28;20104;-44
2023/02/11 04:51:18;;;;;;;68.85;43.75;;;;;;;-0.93;69.89;100649.97;5091811;28;20028;-44
2023/02/11 04:53:45;;;;;;;69.57;40.38;;;;;;;-0.99;70.53;100658.00;5090506;28;20024;-44
2023/02/11 04:56:12;;;;;;;76.78;46.65;;;;;;;-0.97;71.03;100652.78;5091844;28;20024;-45
2023/02/11 04:58:39;;;;;;;66.20;43.55;;;;;;;-0.92;71.08;100653.41;5091798;28;20489;-43
2023/02/11 05:01:11;;;;;;;66.50;43.05;;;;;;;-0.95;70.33;100648.38;5091812;28;20555;-44
2023/02/11 05:03:39;;;;;;;67.68;42.97;;;;;;;-1.01;70.87;100645.22;5090472;28;20034;-44
2023/02/11 05:06:06;;;;;;;62.95;40.08;;;;;;;-1.05;71.01;100646.28;5091707;28;20379;-44
2023/02/11 05:08:34;;;;;;;69.75;42.92;;;;;;;-0.95;70.79;100641.47;5091751;28;20556;-44
2023/02/11 05:11:01;;;;;;;64.90;44.22;;;;;;;-0.83;71.16;100630.53;5091615;28;20238;-44
2023/02/11 05:13:29;;;;;;;65.50;43.13;;;;;;;-0.78;70.25;100630.31;5090319;28;20024;-44
2023/02/11 05:15:55;;;;;;;73.70;46.95;;;;;;;-0.78;70.88;100622.59;5090280;28;20081;-44
2023/02/11 05:18:29;;;;;;;65.30;40.53;;;;;;;-0.75;70.57;100622.41;5090271;28;20431;-44
2023/02/11 05:21:18;;;;;;;67.53;40.67;;;;;;;-0.83;69.98;100624.56;5090186;28;20028;-45
2023/02/11 05:23:53;;;;;;;66.32;41.38;;;;;;;-0.81;70.14;100626.13;5090243;28;20021;-45
2023/02/11 05:26:22;;;;;;;70.60;44.33;;;;;;;-0.76;69.83;100622.53;5091502;28;20099;-44
2023/02/11 05:28:55;;;;;;;62.33;41.25;;;;;;;-0.74;69.67;100615.53;5091496;28;20496;-44
2023/02/11 05:31:44;;;;;;;67.05;46.17;;;;;;;-0.72;69.94;100621.44;5089950;28;20497;-44
2023/02/11 05:34:21;;;;;;;65.47;43.45;;;;;;;-0.71;70.02;100616.19;5091486;28;20056;-45
2023/02/11 05:36:58;;;;;;;66.45;41.70;;;;;;;-0.71;69.52;100623.91;5086688;28;20040;-44
2023/02/11 05:39:33;;;;;;;62.30;36.75;;;;;;;-0.72;69.64;100627.44;5090100;28;20511;-45
2023/02/11 05:41:59;;;;;;;68.77;41.97;;;;;;;-0.66;69.82;100632.25;5090066;28;20036;-44
2023/02/11 05:44:26;;;;;;;61.25;40.97;;;;;;;-0.55;69.76;100623.13;5091337;28;20391;-44
2023/02/11 05:46:54;;;;;;;70.55;38.53;;;;;;;-0.56;69.44;100624.88;5091382;28;20023;-44
2023/02/11 05:49:20;;;;;;;68.00;43.42;;;;;;;-0.52;69.08;100630.72;5091304;28;20521;-44
2023/02/11 05:51:48;;;;;;;72.25;45.35;;;;;;;-0.66;68.08;100628.84;5094316;28;20016;-45
2023/02/11 05:54:15;;;;;;;74.85;44.70;;;;;;;-0.66;68.92;100628.84;5094983;28;20016;-44
2023/02/11 05:56:43;;;;;;;72.25;36.63;;;;;;;-0.47;68.84;100629.53;5093513;28;20092;-44
2023/02/11 05:59:13;;;;;;;63.45;39.10;;;;;;;-0.34;68.34;100621.13;5093606;28;20521;-44
2023/02/11 06:01:40;;;;;;;69.68;42.22;;;;;;;-0.20;67.84;100623.81;5093512;28;20110;-44
2023/02/11 06:04:08;;;;;;;62.70;43.38;;;;;;;-0.17;67.64;100618.47;5094835;28;20114;-44
2023/02/11 06:06:35;;;;;;;63.30;43.72;;;;;;;-0.26;68.01;100616.41;5093367;28;20026;-44
2023/02/11 06:09:02;;;;;;;65.90;45.13;;;;;;;-0.35;67.49;100628.03;5093356;28;20035;-44
2023/02/11 06:11:29;;;;;;;67.90;45.10;;;;;;;-0.58;67.03;100620.69;5093236;28;20024;-44
2023/02/11 06:13:56;;;;;;;68.85;45.72;;;;;;;-0.84;67.99;100626.31;5093274;28;20059;-44
2023/02/11 06:16:24;;;;;;;64.68;43.00;;;;;;;-0.75;68.51;100616.44;5093184;28;20501;-44
2023/02/11 06:18:52;;;;;;;60.42;32.35;;;;;;;-0.51;68.49;100622.03;5093162;28;20035;-44
2023/02/11 06:21:20;;;;;;;59.85;34.05;;;;;;;-0.43;67.20;100622.47;5093066;28;20523;-44
2023/02/11 06:23:46;;;;;;;66.82;45.85;;;;;;;-0.49;67.21;100622.78;5093089;28;20032;-44
2023/02/11 06:26:19;;;;;;;68.63;45.45;;;;;;;-0.69;67.25;100613.53;5094349;28;20013;-44
2023/02/11 06:28:46;;;;;;;76.10;50.85;;;;;;;-0.92;68.06;100623.28;5094309;28;20024;-44
2023/02/11 06:31:15;;;;;;;73.78;47.08;;;;;;;-1.03;69.61;100626.44;5094147;28;20052;-44
2023/02/11 06:33:42;;;;;;;77.10;50.13;;;;;;;-1.13;69.23;100632.94;5092923;28;20024;-44
2023/02/11 06:36:19;;;;;;;71.85;41.80;;;;;;;-1.18;69.52;100631.53;5092463;28;20056;-44
2023/02/11 06:38:57;;;;;;;68.95;41.63;;;;;;;-1.04;69.81;100629.91;5094147;28;20051;-45
2023/02/11 06:41:32;;;;;;;62.50;40.70;;;;;;;-0.89;69.23;100628.28;5094057;28;20032;-45
2023/02/11 06:44:04;;;;;;;66.22;45.13;;;;;;;-0.88;69.12;100629.13;5094130;28;20020;-44
2023/02/11 06:46:47;;;;;;;73.65;45.20;;;;;;;-1.00;69.58;100633.16;5093943;28;20028;-44
2023/02/11 06:49:13;;;;;;;75.75;50.40;;;;;;;-1.07;69.93;100635.19;5092624;28;20024;-44
2023/02/11 06:51:56;;;;;;;71.43;49.75;;;;;;;-1.07;70.00;100640.34;5093764;28;20028;-44
2023/02/11 06:54:23;;;;;;;77.70;51.95;;;;;;;-1.12;69.84;100641.53;5093866;28;20068;-44
2023/02/11 06:57:02;;;;;;;74.93;47.15;;;;;;;-1.19;69.96;100645.31;5092363;28;20028;-45
2023/02/11 06:59:38;;;;;;;;;;;;;;;;;;;;;
2023/02/11 07:02:13;;;;;;;150.98;43.67;;;;;;;-0.72;70.93;100635.16;5093139;28;20063;-44
2023/02/11 07:04:40;;;;;;;67.50;44.63;;;;;;;-0.33;69.80;100635.72;5093620;28;20020;-44
2023/02/11 07:07:07;;;;;;;64.80;39.40;;;;;;;-0.22;69.97;100641.97;5093790;28;20393;-43
2023/02/11 07:09:34;;;;;;;69.03;41.50;;;;;;;0.06;69.04;100639.63;5093510;28;20028;-44
2023/02/11 07:12:01;;;;;;;61.55;38.65;;;;;;;0.68;68.74;100645.56;5093330;28;20524;-44
2023/02/11 07:14:28;;;;;;;69.35;46.33;;;;;;;1.04;65.93;100648.69;5093487;28;20119;-44
2023/02/11 07:16:56;;;;;;;70.10;43.97;;;;;;;0.83;65.16;100643.88;5092014;28;20032;-44
2023/02/11 07:19:33;;;;;;;62.40;45.08;;;;;;;0.83;65.08;100651.63;5093261;28;20024;-45
2023/02/11 07:22:07;;;;;;;66.78;46.00;;;;;;;0.90;64.50;100658.09;5091961;28;20028;-45
2023/02/11 07:24:33;;;;;;;68.95;44.45;;;;;;;0.92;63.89;100661.41;5093227;28;20050;-44
2023/02/11 07:27:15;;;;;;;67.65;43.03;;;;;;;0.93;63.49;100668.25;5091785;28;20405;-46
2023/02/11 07:29:52;;;;;;;;;;;;;;;;;;;;;
2023/02/11 07:32:38;;;;;;;69.93;42.03;;;;;;;1.15;63.38;100665.25;5093112;28;20118;-48
2023/02/11 07:35:04;;;;;;;62.72;41.95;;;;;;;1.45;63.59;100660.91;5091736;28;20024;-46
2023/02/11 07:37:45;;;;;;;60.95;42.85;;;;;;;2.07;62.27;100670.91;5089880;28;20108;-47
2023/02/11 07:40:12;;;;;;;62.65;41.38;;;;;;;2.47;61.48;100668.34;5092910;28;20048;-47
2023/02/11 07:42:40;;;;;;;64.28;41.80;;;;;;;2.99;60.13;100677.91;5092870;28;20047;-46
2023/02/11 07:45:08;;;;;;;61.67;41.78;;;;;;;3.53;58.11;100676.88;5092797;28;20523;-46
2023/02/11 07:47:34;;;;;;;61.75;41.30;;;;;;;3.49;57.49;100680.63;5092798;28;20020;-46
2023/02/11 07:50:01;;;;;;;59.60;40.03;;;;;;;3.33;57.93;100683.44;5091213;28;20035;-46
2023/02/11 07:52:32;;;;;;;59.00;39.47;;;;;;;3.51;57.83;100689.94;5091382;28;20084;-46
2023/02/11 07:55:01;;;;;;;61.20;40.67;;;;;;;3.65;57.22;100691.59;5092677;28;20498;-46
2023/02/11 07:57:28;;;;;;;59.30;43.72;;;;;;;3.64;55.45;100684.72;5092697;28;20084;-46
2023/02/11 07:59:55;;;;;;;61.63;36.08;;;;;;;3.52;55.38;100693.38;5091270;28;20406;-46
2023/02/11 08:02:22;;;;;;;57.42;39.00;;;;;;;3.99;54.72;100694.44;5092520;28;20031;-46
2023/02/11 08:04:49;;;;;;;57.17;38.00;;;;;;;4.50;52.23;100691.66;5091149;28;20028;-46
2023/02/11 08:07:17;;;;;;;60.67;39.97;;;;;;;4.93;52.37;100693.72;5091176;28;20050;-46
2023/02/11 08:09:44;;;;;;;53.72;37.72;;;;;;;5.36;52.22;100690.47;5091074;28;20020;-46
2023/02/11 08:12:11;;;;;;;71.75;49.35;;;;;;;5.89;51.60;100695.06;5091000;28;20084;-46
2023/02/11 08:14:38;;;;;;;58.50;40.20;;;;;;;6.24;50.59;100694.09;5090184;28;20024;-46
2023/02/11 08:17:05;;;;;;;59.80;39.22;;;;;;;6.50;50.08;100696.38;5091003;28;20069;-46
2023/02/11 08:19:32;;;;;;;57.85;39.65;;;;;;;7.27;49.43;100698.72;5092188;28;20505;-47
2023/02/11 08:22:00;;;;;;;59.72;40.42;;;;;;;7.70;47.88;100702.06;5092197;28;20069;-47
2023/02/11 08:24:28;;;;;;;64.53;41.90;;;;;;;7.91;46.55;100700.22;5092225;28;20025;-47
2023/02/11 08:26:56;;;;;;;56.10;41.92;;;;;;;8.19;45.57;100701.25;5092171;28;20024;-46
2023/02/11 08:29:23;;;;;;;55.85;37.63;;;;;;;8.37;43.56;100697.97;5092150;28;20027;-46
2023/02/11 08:31:51;;;;;;;56.38;42.63;;;;;;;8.59;44.03;100704.75;5073953;28;20073;-47
2023/02/11 08:34:18;;;;;;;57.80;40.30;;;;;;;9.08;43.40;100707.38;5090881;28;20024;-47
2023/02/11 08:36:47;;;;;;;61.33;43.13;;;;;;;9.82;42.72;100711.81;5090382;28;20052;-46
2023/02/11 08:39:22;;;;;;;53.70;41.10;;;;;;;10.17;42.33;100707.63;5090980;28;20035;-47
2023/02/11 08:41:52;;;;;;;56.58;39.25;;;;;;;10.89;41.13;100705.03;5090714;28;20104;-47
2023/02/11 08:44:20;;;;;;;104.32;91.97;;;;;;;11.19;40.27;100703.78;5090654;28;20025;-47
2023/02/11 08:46:49;;;;;;;105.10;80.03;;;;;;;11.51;40.11;100697.88;5090602;28;20116;-47
2023/02/11 08:49:16;;;;;;;87.13;59.97;;;;;;;12.04;39.39;100695.16;5091908;28;20024;-47
2023/02/11 08:51:45;;;;;;;64.95;44.38;;;;;;;12.34;39.46;100693.75;5091830;28;20031;-48
2023/02/11 08:54:13;;;;;;;58.25;45.03;;;;;;;13.11;37.71;100685.50;5090526;28;20034;-47
2023/02/11 08:56:41;;;;;;;54.03;43.40;;;;;;;12.76;36.97;100687.53;5090573;28;20078;-47
2023/02/11 08:59:14;;;;;;;61.75;44.97;;;;;;;11.49;37.60;100697.22;5091821;28;20031;-47
2023/02/11 09:01:42;;;;;;;58.58;44.20;;;;;;;11.32;38.31;100701.53;5091769;28;20405;-47
2023/02/11 09:04:10;;;;;;;59.20;44.25;;;;;;;10.52;38.98;100699.00;5091736;28;20051;-47
2023/02/11 09:06:37;;;;;;;61.92;48.03;;;;;;;9.80;40.26;100701.47;5091628;28;20037;-47
2023/02/11 09:12:00;;;;;;;58.25;44.10;;;;;;;10.86;40.50;100686.94;5091383;28;20031;-48
2023/02/11 09:14:37;;;;;;;;;;;;;;;;;;;;;
2023/02/11 09:17:25;;;;;;;57.25;43.28;;;;;;;13.37;37.53;100682.69;5105044;28;20063;-49
2023/02/11 09:20:08;;;;;;;61.00;44.83;;;;;;;13.76;36.15;100684.50;5091606;28;20066;-47
2023/02/11 09:22:35;;;;;;;52.45;41.40;;;;;;;14.09;35.61;100687.00;5090285;28;20497;-45
2023/02/11 09:25:02;;;;;;;53.42;43.13;;;;;;;15.07;34.49;100688.94;5091937;28;20020;-46
2023/02/11 09:27:30;;;;;;;51.35;42.78;;;;;;;15.68;33.81;100683.47;5095505;28;20027;-46
2023/02/11 09:30:03;;;;;;;64.13;43.60;;;;;;;15.84;33.81;100674.53;5093996;28;20024;-46
2023/02/11 09:32:34;;;;;;;58.70;45.35;;;;;;;16.70;32.79;100676.38;5095392;28;20064;-46
2023/02/11 09:35:18;;;;;;;61.03;43.17;;;;;;;17.60;31.43;100664.13;5095319;28;20023;-47
2023/02/11 09:38:01;;;;;;;54.05;42.85;;;;;;;18.09;30.52;100665.78;5091536;28;20047;-47
2023/02/11 09:40:28;;;;;;;53.90;44.60;;;;;;;17.94;29.55;100663.28;5095569;28;20051;-46
2023/02/11 09:43:18;;;;;;;56.58;44.85;;;;;;;17.53;30.66;100663.31;5093875;28;20028;-46
2023/02/11 09:45:46;;;;;;;59.95;44.15;;;;;;;17.99;29.99;100670.66;5093860;28;20027;-46
2023/02/11 09:48:21;;;;;;;54.30;42.85;;;;;;;18.41;28.97;100663.38;5095142;28;20090;-46
2023/02/11 09:50:58;;;;;;;54.40;43.63;;;;;;;18.80;28.37;100664.44;5093882;28;20478;-46
2023/02/11 09:53:47;;;;;;;57.63;45.95;;;;;;;19.10;27.73;100672.78;5077399;28;20040;-46
2023/02/11 09:56:15;;;;;;;55.17;46.13;;;;;;;18.94;27.23;100670.56;5095236;28;20028;-46
2023/02/11 09:58:44;;;;;;;53.95;45.63;;;;;;;18.79;27.67;100664.59;5093620;28;20032;-46
2023/02/11 10:01:42;;;;;;;55.55;46.72;;;;;;;19.52;28.08;100677.81;5093479;28;20024;-46
2023/02/11 10:04:28;;;;;;;55.40;46.97;;;;;;;20.20;26.86;100671.97;5094858;28;20103;-46
2023/02/11 10:07:26;;;;;;;52.03;45.97;;;;;;;20.54;26.62;100678.72;5094772;28;20020;-47
2023/02/11 10:10:29;;;;;;;55.67;44.13;;;;;;;21.02;25.46;100677.31;5093341;28;20028;-46
2023/02/11 10:13:31;;;;;;;47.33;42.05;;;;;;;21.62;24.97;100673.22;5089718;28;20166;-46
2023/02/11 10:16:04;;;;;;;53.35;44.80;;;;;;;21.84;24.09;100670.88;5090852;28;20043;-46
2023/02/11 10:19:06;;;;;;;58.15;45.50;;;;;;;21.98;23.92;100666.97;5094546;28;20028;-46
2023/02/11 10:22:06;;;;;;;54.67;45.30;;;;;;;21.93;24.16;100665.00;5094228;28;20501;-46
2023/02/11 10:24:34;;;;;;;53.85;43.25;;;;;;;22.28;24.15;100669.66;5094521;28;20020;-47
2023/02/11 10:27:19;;;;;;;54.03;44.83;;;;;;;22.37;23.89;100669.34;5094340;28;20511;-46
2023/02/11 10:30:42;;;;;;;54.53;46.20;;;;;;;22.04;23.55;100668.75;5092952;28;20036;-46
2023/02/11 10:33:52;;;;;;;47.25;42.40;;;;;;;22.26;23.36;100679.78;5094159;28;20533;-47
2023/02/11 10:36:33;;;;;;;49.65;44.28;;;;;;;22.51;23.23;100671.56;5093651;28;20024;-47
2023/02/11 10:39:19;;;;;;;49.03;42.58;;;;;;;22.60;22.57;100673.94;5093970;28;20040;-46
2023/02/11 10:41:55;;;;;;;48.80;43.65;;;;;;;22.38;22.70;100682.50;5094109;28;20031;-46
2023/02/11 10:45:06;;;;;;;46.65;41.58;;;;;;;22.37;22.91;100680.84;5092848;28;20113;-47
2023/02/11 10:47:48;;;;;;;50.20;42.72;;;;;;;22.52;22.74;100675.06;5093760;28;20035;-47
2023/02/11 10:50:41;;;;;;;50.25;44.78;;;;;;;22.63;22.46;100676.94;5093883;28;20501;-47
2023/02/11 10:53:20;;;;;;;59.03;52.92;;;;;;;22.49;22.49;100675.53;5094114;28;20067;-47
2023/02/11 10:55:58;;;;;;;96.35;87.38;;;;;;;22.34;22.82;100678.63;5092502;28;20032;-47
2023/02/11 10:59:04;;;;;;;97.63;88.38;;;;;;;22.14;23.07;100677.03;5092406;28;20505;-46
2023/02/11 11:01:59;;;;;;;86.95;78.40;;;;;;;22.01;22.52;100679.06;5092437;28;20488;-47
2023/02/11 11:04:43;;;;;;;55.93;49.37;;;;;;;21.80;22.86;100675.06;5093703;28;20032;-47
2023/02/11 11:07:20;;;;;;;61.70;55.38;;;;;;;21.32;23.04;100665.91;5092299;28;20032;-46
2023/02/11 11:09:58;;;;;;;74.05;63.67;;;;;;;20.81;24.07;100661.72;5093630;28;20039;-46
2023/02/11 11:12:45;;;;;;;60.13;54.05;;;;;;;20.51;24.35;100663.16;5093518;28;20028;-46
2023/02/11 11:15:38;;;;;;;51.03;45.75;;;;;;;20.45;24.08;100663.22;5093474;28;20063;-46
2023/02/11 11:18:17;;;;;;;47.65;42.90;;;;;;;20.83;23.39;100646.31;5090490;28;20036;-46
2023/02/11 11:20:59;;;;;;;53.55;43.03;;;;;;;21.46;23.44;100645.25;5093360;28;20501;-46
2023/02/11 11:23:28;;;;;;;46.00;41.03;;;;;;;21.86;22.64;100637.53;5093148;28;20030;-46
2023/02/11 11:26:13;;;;;;;48.55;43.38;;;;;;;22.00;23.18;100632.81;5091870;28;20032;-46
2023/02/11 11:28:59;;;;;;;45.78;41.00;;;;;;;22.18;23.14;100623.09;5093210;28;20127;-47
2023/02/11 11:31:27;;;;;;;;;;;;;;;22.39;23.28;100622.56;5093088;28;20481;-47
2023/02/11 11:34:32;;;;;;;48.83;42.72;;;;;;;20.64;23.72;100624.91;5093095;28;19912;-46
2023/02/11 11:37:30;;;;;;;;;;;;;;;;;;;;;
2023/02/11 11:40:34;;;;;;;51.22;43.33;;;;;;;18.68;27.37;100631.47;5092738;28;20028;-46
2023/02/11 11:43:19;;;;;;;46.58;41.65;;;;;;;17.82;27.80;100619.69;5092977;28;20119;-46
2023/02/11 11:46:11;;;;;;;43.97;39.28;;;;;;;18.25;28.01;100610.59;5092785;28;20501;-45
2023/02/11 11:49:15;;;;;;;44.03;39.40;;;;;;;19.47;26.46;100603.06;5092526;28;20149;-45
2023/02/11 11:52:34;;;;;;;45.25;39.45;;;;;;;20.29;25.66;100595.22;5092710;28;20024;-47
2023/02/11 11:55:56;;;;;;;45.45;40.63;;;;;;;21.01;24.88;100592.13;5092930;28;20032;-47
2023/02/11 11:58:30;;;;;;;44.67;39.35;;;;;;;21.32;24.35;100591.13;5090100;28;20119;-46
2023/02/11 12:00:59;;;;;;;46.22;41.08;;;;;;;21.68;24.15;100587.59;5091251;28;20047;-46
2023/02/11 12:04:00;;;;;;;49.63;42.33;;;;;;;21.92;24.55;100577.00;5091245;28;20032;-47
2023/02/11 12:07:04;;;;;;;51.38;45.80;;;;;;;21.88;23.60;100575.81;5092433;28;20096;-46
2023/02/11 12:09:50;;;;;;;67.63;60.55;;;;;;;21.84;23.61;100571.97;5092454;28;20023;-46
2023/02/11 12:12:56;;;;;;;52.85;47.17;;;;;;;21.91;24.09;100570.84;5092330;28;20367;-46
2023/02/11 12:16:01;;;;;;;51.17;45.67;;;;;;;21.76;23.91;100567.78;5092401;28;20020;-47
2023/02/11 12:19:26;;;;;;;51.88;45.13;;;;;;;21.41;24.20;100565.75;5092328;28;20055;-47
2023/02/11 12:22:31;;;;;;;62.17;48.80;;;;;;;21.06;25.79;100561.03;5092246;28;20031;-47